createdAt,value
2019-05-10T00:03:13.935Z,1.93
2019-05-10T00:06:38.598Z,2.33
2019-05-10T00:09:44.694Z,2.00
2019-05-10T00:13:13.706Z,2.00
2019-05-10T00:16:20.681Z,1.90
2019-05-10T00:19:27.658Z,2.77
2019-05-10T00:22:34.607Z,2.10
2019-05-10T00:25:41.605Z,2.40
2019-05-10T00:28:48.586Z,2.50
2019-05-10T00:31:55.544Z,2.73
2019-05-10T00:35:02.544Z,1.90
2019-05-10T00:38:09.467Z,2.63
2019-05-10T00:41:16.450Z,2.60
2019-05-10T00:44:23.469Z,1.80
2019-05-10T00:47:30.455Z,2.37
2019-05-10T00:50:37.421Z,1.70
2019-05-10T00:53:44.468Z,1.80
2019-05-10T00:56:51.472Z,1.63
2019-05-10T00:59:58.451Z,2.10
2019-05-10T01:03:05.408Z,2.20
2019-05-10T01:06:12.396Z,1.73
2019-05-10T01:09:19.392Z,2.07
2019-05-10T01:12:26.379Z,1.87
2019-05-10T01:15:33.380Z,1.57
2019-05-10T01:18:40.344Z,1.57
2019-05-10T01:21:47.371Z,1.60
2019-05-10T01:24:54.382Z,1.40
2019-05-10T01:28:01.469Z,2.50
2019-05-10T01:31:08.407Z,1.70
2019-05-10T01:34:15.343Z,1.73
2019-05-10T01:37:22.351Z,1.50
2019-05-10T01:40:29.319Z,1.30
2019-05-10T01:43:36.295Z,1.50
2019-05-10T01:46:43.283Z,2.50
2019-05-10T01:49:50.283Z,2.13
2019-05-10T01:52:57.303Z,1.93
2019-05-10T01:56:04.290Z,1.83
2019-05-10T01:59:11.253Z,2.50
2019-05-10T02:02:18.210Z,2.03
2019-05-10T02:05:25.191Z,2.50
2019-05-10T02:08:32.106Z,2.37
2019-05-10T02:11:39.142Z,3.30
2019-05-10T02:14:46.083Z,2.77
2019-05-10T02:17:53.085Z,2.73
2019-05-10T02:21:02.445Z,2.57
2019-05-10T02:24:09.406Z,3.47
2019-05-10T02:27:16.401Z,2.60
2019-05-10T02:30:23.412Z,2.40
2019-05-10T02:33:30.379Z,3.00
2019-05-10T02:36:37.355Z,2.50
2019-05-10T02:39:44.331Z,2.90
2019-05-10T02:42:51.310Z,2.70
2019-05-10T02:45:58.498Z,2.67
2019-05-10T02:49:05.775Z,3.03
2019-05-10T02:52:13.167Z,2.30
2019-05-10T02:55:20.195Z,2.33
2019-05-10T02:58:27.355Z,2.60
2019-05-10T03:01:37.011Z,1.90
2019-05-10T03:04:46.099Z,2.20
2019-05-10T03:07:56.312Z,2.30
2019-05-10T03:11:03.431Z,2.50
2019-05-10T03:14:14.038Z,2.10
2019-05-10T03:17:21.329Z,1.80
2019-05-10T03:20:28.495Z,2.63
2019-05-10T03:23:35.494Z,1.77
2019-05-10T03:26:50.800Z,2.93
2019-05-10T03:29:52.708Z,2.27
2019-05-10T03:32:59.817Z,2.90
2019-05-10T03:36:07.088Z,2.50
2019-05-10T03:39:14.098Z,2.10
2019-05-10T03:42:21.020Z,2.97
2019-05-10T03:45:27.997Z,2.10
2019-05-10T03:48:34.989Z,2.90
2019-05-10T03:51:41.927Z,2.50
2019-05-10T03:54:48.915Z,3.27
2019-05-10T03:57:55.843Z,2.20
2019-05-10T04:01:02.822Z,3.40
2019-05-10T04:04:09.981Z,2.43
2019-05-10T04:07:16.974Z,3.00
2019-05-10T04:10:23.969Z,2.33
2019-05-10T04:13:30.963Z,2.93
2019-05-10T04:16:40.202Z,2.47
2019-05-10T04:19:47.166Z,2.73
2019-05-10T04:22:54.146Z,2.43
2019-05-10T04:26:01.351Z,2.40
2019-05-10T04:29:08.368Z,1.67
2019-05-10T04:32:15.344Z,2.70
2019-05-10T04:35:22.341Z,2.07
2019-05-10T04:38:29.296Z,2.63
2019-05-10T04:41:36.249Z,1.83
2019-05-10T04:44:43.273Z,1.87
2019-05-10T04:47:50.215Z,2.07
2019-05-10T04:50:57.231Z,2.17
2019-05-10T04:54:04.171Z,2.10
2019-05-10T04:57:11.168Z,2.40
2019-05-10T05:00:18.351Z,2.00
2019-05-10T05:03:25.295Z,1.77
2019-05-10T05:06:32.331Z,2.87
2019-05-10T05:09:39.306Z,1.93
2019-05-10T05:12:46.296Z,2.37
2019-05-10T05:15:53.294Z,2.27
2019-05-10T05:19:00.238Z,2.10
2019-05-10T05:22:07.241Z,1.90
2019-05-10T05:25:14.321Z,2.33
2019-05-10T05:28:23.175Z,2.30
2019-05-10T05:31:29.988Z,2.07
2019-05-10T05:34:37.002Z,2.10
2019-05-10T05:37:44.022Z,1.50
2019-05-10T05:40:51.021Z,1.90
2019-05-10T05:43:58.008Z,2.20
2019-05-10T05:47:05.174Z,1.50
2019-05-10T05:50:12.219Z,2.10
2019-05-10T05:53:22.371Z,2.13
2019-05-10T05:56:27.831Z,2.40
2019-05-10T05:59:34.818Z,2.20
2019-05-10T06:02:44.906Z,1.87
2019-05-10T06:05:50.887Z,1.73
2019-05-10T06:08:59.592Z,2.00
2019-05-10T06:12:10.836Z,1.60
2019-05-10T06:15:15.207Z,2.17
2019-05-10T06:18:22.170Z,1.50
2019-05-10T06:21:29.131Z,1.53
2019-05-10T06:24:36.133Z,1.47
2019-05-10T06:27:43.348Z,1.73
2019-05-10T06:30:50.545Z,1.50
2019-05-10T06:33:57.516Z,1.83
2019-05-10T06:37:04.507Z,1.77
2019-05-10T06:40:11.701Z,1.77
2019-05-10T06:43:18.754Z,1.40
2019-05-10T06:46:29.408Z,1.50
2019-05-10T06:49:34.661Z,1.60
2019-05-10T06:52:41.634Z,1.80
2019-05-10T06:55:48.937Z,1.73
2019-05-10T06:58:55.881Z,1.90
2019-05-10T07:02:02.845Z,1.90
2019-05-10T07:05:09.917Z,1.60
2019-05-10T07:08:20.441Z,1.87
2019-05-10T07:11:25.492Z,1.93
2019-05-10T07:14:32.456Z,1.83
2019-05-10T07:17:43.649Z,2.00
2019-05-10T07:20:48.078Z,2.20
2019-05-10T07:23:55.135Z,1.83
2019-05-10T07:27:03.015Z,2.10
2019-05-10T07:30:10.835Z,2.00
2019-05-10T07:33:17.856Z,1.80
2019-05-10T07:36:27.589Z,1.70
2019-05-10T07:39:33.723Z,1.80
2019-05-10T07:42:45.498Z,1.90
2019-05-10T07:45:49.333Z,1.70
2019-05-10T07:48:56.292Z,1.60
2019-05-10T07:52:04.493Z,1.43
2019-05-10T07:55:11.584Z,2.00
2019-05-10T07:58:18.547Z,2.00
2019-05-10T08:01:32.222Z,1.87
2019-05-10T08:04:34.095Z,1.43
2019-05-10T08:07:41.062Z,1.60
2019-05-10T08:10:48.842Z,1.63
2019-05-10T08:13:57.852Z,1.50
2019-05-10T08:17:06.316Z,1.80
2019-05-10T08:20:25.689Z,1.70
2019-05-10T08:23:23.740Z,1.63
2019-05-10T08:26:32.822Z,1.67
2019-05-10T08:29:39.049Z,1.70
2019-05-10T08:32:46.044Z,2.03
2019-05-10T08:36:00.478Z,1.40
2019-05-10T08:39:10.051Z,1.43
2019-05-10T08:42:29.401Z,1.30
2019-05-10T08:45:19.012Z,1.50
2019-05-10T08:48:27.719Z,1.33
2019-05-10T08:51:43.746Z,1.70
2019-05-10T08:54:43.425Z,1.50
2019-05-10T08:57:52.353Z,1.40
2019-05-10T09:01:15.371Z,1.97
2019-05-10T09:04:10.851Z,1.77
2019-05-10T09:07:16.225Z,1.60
2019-05-10T09:10:23.326Z,2.03
2019-05-10T09:13:37.247Z,1.80
2019-05-10T09:16:43.278Z,1.67
2019-05-10T09:19:47.654Z,1.80
2019-05-10T09:22:54.640Z,1.90
2019-05-10T09:26:09.832Z,1.83
2019-05-10T09:29:12.122Z,1.63
2019-05-10T09:32:21.415Z,1.63
2019-05-10T09:35:27.735Z,1.90
2019-05-10T09:38:39.091Z,1.90
2019-05-10T09:41:44.733Z,1.60
2019-05-10T09:44:52.697Z,1.50
2019-05-10T09:48:02.278Z,1.70
2019-05-10T09:51:08.443Z,1.60
2019-05-10T09:54:18.122Z,1.40
2019-05-10T09:57:24.230Z,1.50
2019-05-10T10:00:37.899Z,1.70
2019-05-10T10:03:45.007Z,1.57
2019-05-10T10:06:52.928Z,1.63
2019-05-10T10:10:00.031Z,2.00
2019-05-10T10:13:11.759Z,2.03
2019-05-10T10:16:15.671Z,1.90
2019-05-10T10:19:24.476Z,2.07
2019-05-10T10:22:31.463Z,2.10
2019-05-10T10:25:40.635Z,2.20
2019-05-10T10:28:49.835Z,1.67
2019-05-10T10:31:58.847Z,2.20
2019-05-10T10:35:07.574Z,1.73
2019-05-10T10:38:13.426Z,1.80
2019-05-10T10:41:26.076Z,1.90
2019-05-10T10:44:29.169Z,2.23
2019-05-10T10:47:38.067Z,2.23
2019-05-10T10:50:53.835Z,1.90
2019-05-10T10:53:54.720Z,1.90
2019-05-10T10:57:02.003Z,2.63
2019-05-10T11:00:10.847Z,2.20
2019-05-10T11:03:18.012Z,2.30
2019-05-10T11:06:25.025Z,2.27
2019-05-10T11:09:32.048Z,2.13
2019-05-10T11:12:41.165Z,2.53
2019-05-10T11:15:47.674Z,2.43
2019-05-10T11:18:54.722Z,2.70
2019-05-10T11:22:09.315Z,2.67
2019-05-10T11:25:12.685Z,2.37
2019-05-10T11:28:20.676Z,2.30
2019-05-10T11:31:27.734Z,2.40
2019-05-10T11:34:37.366Z,2.40
2019-05-10T11:37:45.517Z,2.17
2019-05-10T11:40:52.106Z,2.13
2019-05-10T11:44:05.559Z,1.80
2019-05-10T11:47:22.508Z,2.00
2019-05-10T11:50:28.962Z,1.70
2019-05-10T11:53:25.438Z,1.83
2019-05-10T11:56:32.529Z,1.90
2019-05-10T11:59:41.603Z,1.60
2019-05-10T12:03:03.368Z,1.70
2019-05-10T12:06:05.270Z,1.70
2019-05-10T12:09:06.498Z,2.00
2019-05-10T12:12:13.590Z,1.77
2019-05-10T12:15:25.194Z,1.60
2019-05-10T12:18:32.509Z,2.03
2019-05-10T12:21:38.031Z,2.43
2019-05-10T12:24:53.967Z,2.23
2019-05-10T12:27:53.889Z,2.20
2019-05-10T12:31:01.478Z,2.13
2019-05-10T12:34:12.802Z,1.90
2019-05-10T12:37:17.283Z,1.63
2019-05-10T12:40:24.461Z,2.03
2019-05-10T12:43:31.406Z,1.60
2019-05-10T12:46:41.442Z,2.00
2019-05-10T12:49:53.885Z,1.57
2019-05-10T12:53:13.782Z,1.40
2019-05-10T12:56:06.603Z,1.80
2019-05-10T12:59:13.615Z,1.70
2019-05-10T13:02:20.678Z,1.70
2019-05-10T13:05:31.897Z,1.53
2019-05-10T13:08:36.278Z,1.47
2019-05-10T13:11:43.286Z,1.43
2019-05-10T13:14:52.837Z,1.40
2019-05-10T13:17:58.964Z,1.40
2019-05-10T13:21:07.898Z,1.50
2019-05-10T13:24:14.770Z,1.30
2019-05-10T13:27:21.863Z,1.53
2019-05-10T13:30:29.915Z,1.60
2019-05-10T13:33:41.889Z,1.17
2019-05-10T13:36:46.737Z,1.30
2019-05-10T13:39:58.502Z,1.03
2019-05-10T13:43:02.447Z,1.17
2019-05-10T13:46:09.427Z,1.37
2019-05-10T13:49:16.542Z,1.20
2019-05-10T13:52:29.959Z,1.30
2019-05-10T13:55:32.167Z,1.20
2019-05-10T13:58:39.222Z,1.30
2019-05-10T14:01:49.539Z,1.30
2019-05-10T14:04:54.874Z,1.20
2019-05-10T14:08:01.926Z,1.67
2019-05-10T14:11:08.926Z,1.40
2019-05-10T14:14:20.553Z,1.47
2019-05-10T14:17:24.544Z,1.13
2019-05-10T14:20:31.632Z,1.80
2019-05-10T14:23:38.645Z,1.70
2019-05-10T14:26:51.265Z,2.77
2019-05-10T14:29:55.298Z,1.50
2019-05-10T14:33:02.364Z,1.30
2019-05-10T14:36:09.347Z,1.00
2019-05-10T14:39:16.317Z,0.97
2019-05-10T14:42:30.943Z,0.93
2019-05-10T14:45:31.964Z,1.37
2019-05-10T14:48:38.973Z,1.10
2019-05-10T14:51:58.232Z,1.20
2019-05-10T14:54:56.865Z,1.20
2019-05-10T14:58:03.310Z,0.80
2019-05-10T15:01:10.361Z,0.90
2019-05-10T15:04:20.177Z,1.00
2019-05-10T15:07:26.131Z,0.90
2019-05-10T15:10:39.252Z,0.90
2019-05-10T15:13:41.747Z,1.23
2019-05-10T15:16:48.759Z,0.90
2019-05-10T15:19:59.764Z,0.87
2019-05-10T15:23:04.305Z,1.30
2019-05-10T15:26:12.535Z,1.10
2019-05-10T15:29:39.822Z,1.07
2019-05-10T15:32:46.844Z,0.80
2019-05-10T15:35:53.992Z,1.10
2019-05-10T15:39:00.985Z,0.90
2019-05-10T15:42:08.002Z,0.83
2019-05-10T15:45:19.203Z,1.43
2019-05-10T15:48:24.399Z,1.03
2019-05-10T15:51:36.262Z,1.00
2019-05-10T15:54:45.070Z,1.00
2019-05-10T15:57:51.883Z,1.00
2019-05-10T16:00:57.250Z,0.90
2019-05-10T16:04:04.307Z,1.00
2019-05-10T16:07:14.598Z,0.83
2019-05-10T16:10:19.944Z,0.90
2019-05-10T16:13:26.944Z,0.80
2019-05-10T16:16:37.294Z,0.80
2019-05-10T16:19:42.875Z,1.10
2019-05-10T16:22:49.910Z,1.27
2019-05-10T16:25:57.192Z,1.40
2019-05-10T16:29:04.221Z,1.20
2019-05-10T16:32:11.205Z,1.40
2019-05-10T16:35:18.227Z,1.20
2019-05-10T16:38:25.217Z,1.60
2019-05-10T16:41:32.209Z,1.00
2019-05-10T16:44:39.228Z,1.20
2019-05-10T16:47:46.257Z,1.00
2019-05-10T16:50:53.228Z,1.10
2019-05-10T16:54:00.222Z,1.20
2019-05-10T16:57:07.207Z,1.60
2019-05-10T17:00:14.438Z,1.30
2019-05-10T17:03:21.416Z,1.50
2019-05-10T17:06:29.234Z,1.57
2019-05-10T17:09:36.272Z,1.20
2019-05-10T17:12:43.279Z,1.70
2019-05-10T17:15:50.349Z,1.47
2019-05-10T17:18:57.330Z,1.60
2019-05-10T17:22:04.335Z,1.80
2019-05-10T17:25:11.484Z,1.50
2019-05-10T17:28:18.676Z,1.90
2019-05-10T17:31:25.679Z,1.30
2019-05-10T17:34:32.714Z,1.73
2019-05-10T17:37:40.110Z,1.67
2019-05-10T17:40:49.998Z,2.07
2019-05-10T17:43:56.585Z,1.93
2019-05-10T17:47:03.573Z,1.80
2019-05-10T17:50:10.807Z,2.40
2019-05-10T17:53:17.938Z,1.80
2019-05-10T17:56:24.966Z,1.90
2019-05-10T17:59:32.026Z,2.23
2019-05-10T18:02:39.065Z,1.67
2019-05-10T18:05:48.824Z,1.97
2019-05-10T18:08:54.704Z,1.93
2019-05-10T18:12:01.674Z,2.10
2019-05-10T18:15:09.528Z,2.00
2019-05-10T18:18:16.548Z,2.33
2019-05-10T18:21:24.212Z,2.90
2019-05-10T18:24:36.437Z,3.53
2019-05-10T18:27:40.039Z,3.43
2019-05-10T18:30:47.064Z,2.93
2019-05-10T18:33:55.817Z,3.37
2019-05-10T18:37:02.692Z,4.37
2019-05-10T18:40:09.942Z,3.93
2019-05-10T18:43:16.946Z,4.53
2019-05-10T18:46:24.711Z,5.07
2019-05-10T18:49:31.792Z,2.60
2019-05-10T18:52:38.958Z,2.80
2019-05-10T18:55:45.951Z,3.30
2019-05-10T18:58:52.935Z,12.27
2019-05-10T19:01:59.953Z,9.23
2019-05-10T19:05:07.133Z,6.13
2019-05-10T19:08:14.276Z,3.53
2019-05-10T19:11:21.374Z,3.67
2019-05-10T19:14:29.703Z,4.50
2019-05-10T19:17:40.460Z,3.83
2019-05-10T19:20:48.947Z,5.80
2019-05-10T19:23:54.417Z,4.10
2019-05-10T19:27:07.092Z,5.70
2019-05-10T19:30:10.314Z,9.07
2019-05-10T19:33:17.353Z,5.90
2019-05-10T19:36:24.370Z,4.23
2019-05-10T19:39:31.362Z,4.77
2019-05-10T19:42:42.943Z,5.53
2019-05-10T19:45:51.149Z,4.57
2019-05-10T19:48:55.615Z,5.67
2019-05-10T19:52:02.590Z,5.00
2019-05-10T19:55:12.872Z,5.30
2019-05-10T19:58:18.295Z,6.53
2019-05-10T20:01:25.281Z,5.20
2019-05-10T20:04:32.279Z,4.70
2019-05-10T20:07:45.984Z,3.27
2019-05-10T20:10:47.926Z,5.77
2019-05-10T20:13:54.925Z,5.60
2019-05-10T20:17:01.963Z,4.50
2019-05-10T20:20:09.446Z,5.97
2019-05-10T20:23:16.391Z,5.20
2019-05-10T20:26:23.534Z,6.10
2019-05-10T20:29:30.548Z,5.13
2019-05-10T20:32:37.537Z,5.87
2019-05-10T20:35:44.496Z,5.43
2019-05-10T20:38:51.492Z,5.97
2019-05-10T20:41:58.465Z,5.90
2019-05-10T20:45:08.055Z,6.37
2019-05-10T20:48:14.417Z,4.67
2019-05-10T20:51:21.416Z,6.20
2019-05-10T20:54:28.390Z,5.60
2019-05-10T20:57:35.383Z,5.83
2019-05-10T21:00:42.362Z,5.40
2019-05-10T21:03:49.349Z,6.17
2019-05-10T21:06:56.336Z,6.03
2019-05-10T21:10:03.393Z,4.53
2019-05-10T21:13:10.398Z,5.20
2019-05-10T21:16:18.188Z,4.77
2019-05-10T21:19:25.207Z,4.93
2019-05-10T21:22:32.194Z,4.67
2019-05-10T21:25:39.183Z,6.60
2019-05-10T21:28:46.196Z,5.63
2019-05-10T21:31:53.145Z,4.80
2019-05-10T21:35:00.151Z,4.77
2019-05-10T21:38:07.186Z,5.80
2019-05-10T21:41:14.163Z,5.20
2019-05-10T21:44:21.131Z,6.13
2019-05-10T21:47:28.096Z,4.63
2019-05-10T21:50:35.092Z,7.03
2019-05-10T21:53:42.065Z,4.73
2019-05-10T21:56:49.054Z,6.40
2019-05-10T21:59:56.092Z,5.80
2019-05-10T22:03:03.277Z,5.63
2019-05-10T22:06:10.409Z,5.50
2019-05-10T22:09:17.447Z,6.23
2019-05-10T22:12:24.326Z,5.27
2019-05-10T22:15:31.299Z,5.03
2019-05-10T22:18:38.510Z,6.07
2019-05-10T22:21:45.458Z,5.50
2019-05-10T22:24:52.458Z,6.40
2019-05-10T22:27:59.424Z,5.23
2019-05-10T22:31:06.409Z,6.00
2019-05-10T22:34:13.392Z,5.03
2019-05-10T22:37:20.336Z,5.53
2019-05-10T22:40:27.353Z,6.00
2019-05-10T22:43:34.309Z,5.57
2019-05-10T22:46:41.287Z,5.30
2019-05-10T22:49:48.240Z,5.77
2019-05-10T22:52:55.215Z,6.07
2019-05-10T22:56:02.211Z,6.27
2019-05-10T22:59:09.160Z,5.13
2019-05-10T23:02:16.139Z,5.23
2019-05-10T23:05:23.097Z,4.07
2019-05-10T23:08:30.071Z,6.07
2019-05-10T23:11:37.059Z,4.57
2019-05-10T23:14:44.008Z,6.27
2019-05-10T23:17:51.030Z,4.77
2019-05-10T23:20:58.003Z,5.77
2019-05-10T23:24:07.989Z,5.17
2019-05-10T23:27:15.076Z,5.80
2019-05-10T23:30:22.042Z,6.33
2019-05-10T23:33:29.067Z,4.67
2019-05-10T23:36:36.079Z,6.03
2019-05-10T23:39:43.078Z,4.50
2019-05-10T23:42:50.043Z,6.70
2019-05-10T23:45:57.068Z,4.80
2019-05-10T23:49:04.026Z,5.57
2019-05-10T23:52:11.042Z,5.80
2019-05-10T23:55:18.010Z,6.33
2019-05-10T23:58:24.983Z,5.53
